createdAt,value
2022-08-09T00:00:25.546Z,2.10
2022-08-09T00:01:25.588Z,2.40
2022-08-09T00:02:25.842Z,1.80
2022-08-09T00:04:05.590Z,2.10
2022-08-09T00:04:34.724Z,2.30
2022-08-09T00:06:18.957Z,2.40
2022-08-09T00:06:27.570Z,1.90
2022-08-09T00:07:25.435Z,1.90
2022-08-09T00:08:32.886Z,2.10
2022-08-09T00:09:25.434Z,2.30
2022-08-09T00:10:25.397Z,2.00
2022-08-09T00:12:02.597Z,1.90
2022-08-09T00:12:25.407Z,2.70
2022-08-09T00:13:25.411Z,2.00
2022-08-09T00:14:36.431Z,2.60
2022-08-09T00:15:26.475Z,2.50
2022-08-09T00:16:25.853Z,2.20
2022-08-09T00:18:05.710Z,2.40
2022-08-09T00:18:25.314Z,2.70
2022-08-09T00:19:25.281Z,2.40
2022-08-09T00:20:25.313Z,2.20
2022-08-09T00:21:25.273Z,2.40
2022-08-09T00:22:25.255Z,2.60
2022-08-09T00:23:55.082Z,1.80
2022-08-09T00:24:27.557Z,2.50
2022-08-09T00:25:32.085Z,2.10
2022-08-09T00:26:29.951Z,2.40
2022-08-09T00:27:25.198Z,2.00
2022-08-09T00:28:26.416Z,1.90
2022-08-09T00:30:16.546Z,2.40
2022-08-09T00:30:30.413Z,2.40
2022-08-09T00:31:55.862Z,2.20
2022-08-09T00:32:26.976Z,2.20
2022-08-09T00:33:32.742Z,2.10
2022-08-09T00:34:25.150Z,2.70
2022-08-09T00:35:25.081Z,2.10
2022-08-09T00:36:29.642Z,2.20
2022-08-09T00:37:25.076Z,2.70
2022-08-09T00:38:25.076Z,2.20
2022-08-09T00:40:12.231Z,2.20
2022-08-09T00:40:30.122Z,2.20
2022-08-09T00:44:11.235Z,2.30
2022-08-09T00:44:27.261Z,2.20
2022-08-09T00:44:33.200Z,2.00
2022-08-09T00:45:34.691Z,2.00
2022-08-09T00:46:56.641Z,2.50
2022-08-09T00:47:35.858Z,2.00
2022-08-09T00:48:32.895Z,2.00
2022-08-09T00:49:32.940Z,2.10
2022-08-09T00:50:32.893Z,2.30
2022-08-09T00:51:33.884Z,2.30
2022-08-09T00:52:33.089Z,1.80
2022-08-09T00:53:32.836Z,1.80
2022-08-09T00:54:35.129Z,2.30
2022-08-09T00:56:05.369Z,1.90
2022-08-09T00:56:32.816Z,2.40
2022-08-09T00:57:34.481Z,2.20
2022-08-09T00:58:32.847Z,2.40
2022-08-09T00:59:41.638Z,2.20
2022-08-09T01:00:32.767Z,2.40
2022-08-09T01:01:32.708Z,2.60
2022-08-09T01:02:32.939Z,2.60
2022-08-09T01:03:32.830Z,2.40
2022-08-09T01:04:32.697Z,2.50
2022-08-09T01:05:53.944Z,2.20
2022-08-09T01:06:53.132Z,1.90
2022-08-09T01:07:37.995Z,2.50
2022-08-09T01:08:32.650Z,2.20
2022-08-09T01:09:35.929Z,2.40
2022-08-09T01:10:32.618Z,2.50
2022-08-09T01:11:32.613Z,2.40
2022-08-09T01:12:32.848Z,2.30
2022-08-09T01:13:41.764Z,2.20
2022-08-09T01:14:32.578Z,2.30
2022-08-09T01:15:32.588Z,2.50
2022-08-09T01:16:32.590Z,2.40
2022-08-09T01:17:34.138Z,2.20
2022-08-09T01:18:32.497Z,2.10
2022-08-09T01:19:39.944Z,2.10
2022-08-09T01:20:32.480Z,2.90
2022-08-09T01:21:41.321Z,2.50
2022-08-09T01:22:32.898Z,2.30
2022-08-09T01:24:02.106Z,2.10
2022-08-09T01:24:32.442Z,2.40
2022-08-09T01:25:32.429Z,2.10
2022-08-09T01:26:32.423Z,2.10
2022-08-09T01:27:32.397Z,2.40
2022-08-09T01:28:32.389Z,2.20
2022-08-09T01:29:55.074Z,2.50
2022-08-09T01:30:51.338Z,2.50
2022-08-09T01:32:30.118Z,2.40
2022-08-09T01:32:38.295Z,2.00
2022-08-09T01:33:32.350Z,2.20
2022-08-09T01:34:32.322Z,2.50
2022-08-09T01:35:37.593Z,2.40
2022-08-09T01:36:32.292Z,2.40
2022-08-09T01:38:06.316Z,2.20
2022-08-09T01:38:32.268Z,2.30
2022-08-09T01:39:32.298Z,2.20
2022-08-09T01:40:32.222Z,2.20
2022-08-09T01:41:32.194Z,2.20
2022-08-09T01:42:32.450Z,2.80
2022-08-09T01:43:32.190Z,2.30
2022-08-09T01:44:32.215Z,2.40
2022-08-09T01:45:32.148Z,2.00
2022-08-09T01:46:32.394Z,2.20
2022-08-09T01:47:32.128Z,1.80
2022-08-09T01:48:32.106Z,2.20
2022-08-09T01:49:39.239Z,2.60
2022-08-09T01:50:37.203Z,2.20
2022-08-09T01:51:32.942Z,2.40
2022-08-09T01:52:32.385Z,2.20
2022-08-09T01:53:41.375Z,2.50
2022-08-09T01:54:32.970Z,2.10
2022-08-09T01:55:32.010Z,2.10
2022-08-09T01:56:32.003Z,2.40
2022-08-09T01:57:32.024Z,1.70
2022-08-09T01:58:31.987Z,2.20
2022-08-09T01:59:32.372Z,2.10
2022-08-09T02:00:35.897Z,2.30
2022-08-09T02:01:58.390Z,2.40
2022-08-09T02:02:32.886Z,2.60
2022-08-09T02:03:31.938Z,2.10
2022-08-09T02:04:32.097Z,2.10
2022-08-09T02:05:38.105Z,2.00
2022-08-09T02:06:32.340Z,2.50
2022-08-09T02:08:38.807Z,2.40
2022-08-09T02:08:58.636Z,2.30
2022-08-09T02:09:42.674Z,2.50
2022-08-09T02:10:31.826Z,2.40
2022-08-09T02:11:43.512Z,2.90
2022-08-09T02:12:31.934Z,2.60
2022-08-09T02:13:37.582Z,2.10
2022-08-09T02:14:31.799Z,2.20
2022-08-09T02:15:48.832Z,2.40
2022-08-09T02:16:35.291Z,2.40
2022-08-09T02:17:59.787Z,2.60
2022-08-09T02:18:31.730Z,2.40
2022-08-09T02:19:38.638Z,2.50
2022-08-09T02:20:32.889Z,2.50
2022-08-09T02:21:31.681Z,2.30
2022-08-09T02:22:34.976Z,2.40
2022-08-09T02:23:32.057Z,2.20
2022-08-09T02:24:31.639Z,2.70
2022-08-09T02:25:31.610Z,2.70
2022-08-09T02:26:31.614Z,2.80
2022-08-09T02:27:57.538Z,2.30
2022-08-09T02:28:31.571Z,2.80
2022-08-09T02:29:32.721Z,2.30
2022-08-09T02:30:31.564Z,2.20
2022-08-09T02:31:35.577Z,2.40
2022-08-09T02:32:31.678Z,2.40
2022-08-09T02:33:38.344Z,2.40
2022-08-09T02:34:40.631Z,2.10
2022-08-09T02:36:03.531Z,2.70
2022-08-09T02:36:31.514Z,2.20
2022-08-09T02:37:33.022Z,2.10
2022-08-09T02:38:31.459Z,2.40
2022-08-09T02:39:39.678Z,2.50
2022-08-09T02:40:31.473Z,2.40
2022-08-09T02:41:31.406Z,2.50
2022-08-09T02:42:31.773Z,2.40
2022-08-09T02:43:31.402Z,2.30
2022-08-09T02:44:31.398Z,2.50
2022-08-09T02:45:31.356Z,3.00
2022-08-09T02:46:31.339Z,2.70
2022-08-09T02:47:33.939Z,3.00
2022-08-09T02:48:31.623Z,2.70
2022-08-09T02:49:40.928Z,2.50
2022-08-09T02:50:31.275Z,2.50
2022-08-09T02:51:37.071Z,2.40
2022-08-09T02:52:31.480Z,2.40
2022-08-09T02:53:31.278Z,2.90
2022-08-09T02:54:31.631Z,2.30
2022-08-09T02:55:46.372Z,2.70
2022-08-09T02:56:31.180Z,2.50
2022-08-09T02:57:31.183Z,3.20
2022-08-09T02:58:35.629Z,2.50
2022-08-09T02:59:36.567Z,2.50
2022-08-09T03:00:31.157Z,2.50
2022-08-09T03:01:43.331Z,2.30
2022-08-09T03:02:31.447Z,2.80
2022-08-09T03:04:13.205Z,2.40
2022-08-09T03:04:31.104Z,2.50
2022-08-09T03:05:34.704Z,2.60
2022-08-09T03:06:31.074Z,2.70
2022-08-09T03:07:31.054Z,2.60
2022-08-09T03:08:31.031Z,3.30
2022-08-09T03:09:33.743Z,2.80
2022-08-09T03:10:31.016Z,2.70
2022-08-09T03:12:10.506Z,2.50
2022-08-09T03:12:31.185Z,3.00
2022-08-09T03:13:43.941Z,2.30
2022-08-09T03:14:30.948Z,2.40
2022-08-09T03:15:40.440Z,2.40
2022-08-09T03:16:30.923Z,2.50
2022-08-09T03:17:30.913Z,2.60
2022-08-09T03:18:31.191Z,2.90
2022-08-09T03:19:59.204Z,3.30
2022-08-09T03:20:30.874Z,2.60
2022-08-09T03:21:36.613Z,2.80
2022-08-09T03:22:31.084Z,2.70
2022-08-09T03:23:30.813Z,2.30
2022-08-09T03:24:31.488Z,2.50
2022-08-09T03:25:58.597Z,2.40
2022-08-09T03:26:32.067Z,2.60
2022-08-09T03:27:30.777Z,2.80
2022-08-09T03:28:30.753Z,2.70
2022-08-09T03:29:30.741Z,2.70
2022-08-09T03:30:34.072Z,2.70
2022-08-09T03:31:30.732Z,2.50
2022-08-09T03:32:31.069Z,2.80
2022-08-09T03:33:54.046Z,2.80
2022-08-09T03:34:30.685Z,2.40
2022-08-09T03:35:44.340Z,2.20
2022-08-09T03:36:30.661Z,3.00
2022-08-09T03:37:57.101Z,2.70
2022-08-09T03:38:30.714Z,2.60
2022-08-09T03:39:37.822Z,2.70
2022-08-09T03:40:30.887Z,2.80
2022-08-09T03:41:48.391Z,2.30
2022-08-09T03:42:30.901Z,2.80
2022-08-09T03:43:31.694Z,2.40
2022-08-09T03:44:32.057Z,2.50
2022-08-09T03:46:03.859Z,2.30
2022-08-09T03:46:30.542Z,2.70
2022-08-09T03:47:30.489Z,2.60
2022-08-09T03:48:30.992Z,3.10
2022-08-09T03:49:35.637Z,2.50
2022-08-09T03:50:32.028Z,2.60
2022-08-09T03:51:43.866Z,2.70
2022-08-09T03:52:30.631Z,2.30
2022-08-09T03:53:32.174Z,2.20
2022-08-09T03:54:31.325Z,2.40
2022-08-09T03:55:36.132Z,2.20
2022-08-09T03:56:30.388Z,2.50
2022-08-09T03:57:30.377Z,2.50
2022-08-09T03:58:30.369Z,2.30
2022-08-09T03:59:43.227Z,3.00
2022-08-09T04:00:30.357Z,2.40
2022-08-09T04:01:30.306Z,2.40
2022-08-09T04:02:30.726Z,2.50
2022-08-09T04:03:46.101Z,2.60
2022-08-09T04:04:36.277Z,2.40
2022-08-09T04:05:32.292Z,2.80
2022-08-09T04:06:30.251Z,2.60
2022-08-09T04:07:33.790Z,2.30
2022-08-09T04:08:30.244Z,2.50
2022-08-09T04:09:48.170Z,2.80
2022-08-09T04:10:30.595Z,2.60
2022-08-09T04:11:30.180Z,2.40
2022-08-09T04:12:31.678Z,2.50
2022-08-09T04:14:36.666Z,2.30
2022-08-09T04:15:00.646Z,2.50
2022-08-09T04:15:52.400Z,2.60
2022-08-09T04:16:30.139Z,2.30
2022-08-09T04:17:30.117Z,2.30
2022-08-09T04:18:30.096Z,2.10
2022-08-09T04:19:50.969Z,2.40
2022-08-09T04:20:30.073Z,2.60
2022-08-09T04:21:30.066Z,2.50
2022-08-09T04:22:30.293Z,2.60
2022-08-09T04:23:30.039Z,2.40
2022-08-09T04:24:30.031Z,2.30
2022-08-09T04:25:30.006Z,2.30
2022-08-09T04:26:35.059Z,2.50
2022-08-09T04:27:30.001Z,2.50
2022-08-09T04:28:32.943Z,2.60
2022-08-09T04:29:30.105Z,2.60
2022-08-09T04:30:29.947Z,2.30
2022-08-09T04:31:37.583Z,2.50
2022-08-09T04:32:34.114Z,2.60
2022-08-09T04:33:29.911Z,2.40
2022-08-09T04:34:31.694Z,2.60
2022-08-09T04:35:32.856Z,2.60
2022-08-09T04:36:29.856Z,2.40
2022-08-09T04:37:45.226Z,2.80
2022-08-09T04:38:29.856Z,2.70
2022-08-09T04:39:30.884Z,2.40
2022-08-09T04:40:36.131Z,2.40
2022-08-09T04:41:33.026Z,2.60
2022-08-09T04:42:30.106Z,2.70
2022-08-09T04:43:29.777Z,2.40
2022-08-09T04:44:29.789Z,2.40
2022-08-09T04:45:30.601Z,2.70
2022-08-09T04:46:36.450Z,2.60
2022-08-09T04:47:33.179Z,2.70
2022-08-09T04:48:33.502Z,2.50
2022-08-09T04:49:40.430Z,2.60
2022-08-09T04:50:31.890Z,2.60
2022-08-09T04:51:29.666Z,2.70
2022-08-09T04:52:29.804Z,2.70
2022-08-09T04:53:31.459Z,2.60
2022-08-09T04:54:29.613Z,2.60
2022-08-09T04:55:38.337Z,2.50
2022-08-09T04:56:29.617Z,3.10
2022-08-09T04:57:58.596Z,2.90
2022-08-09T04:58:31.685Z,2.40
2022-08-09T04:59:30.132Z,2.70
2022-08-09T05:00:31.788Z,2.20
2022-08-09T05:01:29.512Z,2.40
2022-08-09T05:02:29.508Z,3.00
2022-08-09T05:03:40.979Z,3.20
2022-08-09T05:04:30.650Z,2.40
2022-08-09T05:05:31.851Z,2.60
2022-08-09T05:06:32.640Z,2.80
2022-08-09T05:07:32.014Z,2.50
2022-08-09T05:08:29.499Z,2.80
2022-08-09T05:09:42.021Z,2.80
2022-08-09T05:10:29.397Z,2.60
2022-08-09T05:11:32.170Z,2.40
2022-08-09T05:12:29.390Z,3.10
2022-08-09T05:13:29.362Z,2.40
2022-08-09T05:14:29.342Z,2.20
2022-08-09T05:15:39.405Z,2.60
2022-08-09T05:16:31.980Z,2.50
2022-08-09T05:18:38.719Z,2.00
2022-08-09T05:18:59.052Z,2.30
2022-08-09T05:19:38.406Z,2.90
2022-08-09T05:20:29.937Z,2.50
2022-08-09T05:21:29.964Z,2.80
2022-08-09T05:22:35.109Z,2.90
2022-08-09T05:24:01.622Z,2.40
2022-08-09T05:24:29.233Z,2.50
2022-08-09T05:25:32.412Z,3.00
2022-08-09T05:26:36.743Z,2.60
2022-08-09T05:27:31.019Z,2.60
2022-08-09T05:28:29.190Z,2.60
2022-08-09T05:29:31.514Z,2.90
2022-08-09T05:30:31.184Z,2.60
2022-08-09T05:31:44.427Z,2.50
2022-08-09T05:32:30.053Z,2.80
2022-08-09T05:33:33.174Z,2.60
2022-08-09T05:34:30.843Z,3.40
2022-08-09T05:35:29.071Z,2.40
2022-08-09T05:36:29.096Z,2.40
2022-08-09T05:37:29.040Z,3.10
2022-08-09T05:38:29.048Z,2.60
2022-08-09T05:39:35.855Z,2.70
2022-08-09T05:40:29.065Z,2.90
2022-08-09T05:41:29.063Z,2.50
2022-08-09T05:42:28.991Z,2.80
2022-08-09T05:43:31.974Z,2.30
2022-08-09T05:44:32.785Z,2.60
2022-08-09T05:45:52.545Z,2.40
2022-08-09T05:46:28.944Z,2.50
2022-08-09T05:47:30.407Z,2.60
2022-08-09T05:48:33.241Z,2.50
2022-08-09T05:50:29.980Z,2.30
2022-08-09T05:50:57.061Z,2.70
2022-08-09T05:51:42.828Z,2.70
2022-08-09T05:52:31.630Z,2.60
2022-08-09T05:53:33.398Z,2.50
2022-08-09T05:54:28.844Z,2.90
2022-08-09T05:55:28.850Z,2.70
2022-08-09T05:56:28.841Z,2.60
2022-08-09T05:57:50.890Z,3.00
2022-08-09T05:58:28.769Z,3.20
2022-08-09T05:59:28.775Z,2.80
2022-08-09T06:00:29.576Z,2.70
2022-08-09T06:01:33.631Z,2.70
2022-08-09T06:02:28.814Z,2.60
2022-08-09T06:03:34.879Z,2.50
2022-08-09T06:04:35.080Z,2.50
2022-08-09T06:05:31.255Z,2.90
2022-08-09T06:06:28.689Z,2.30
2022-08-09T06:07:28.667Z,2.40
2022-08-09T06:08:28.656Z,2.80
2022-08-09T06:09:54.160Z,2.60
2022-08-09T06:10:28.611Z,3.00
2022-08-09T06:11:40.858Z,2.60
2022-08-09T06:12:28.683Z,2.90
2022-08-09T06:13:33.792Z,2.60
2022-08-09T06:14:28.620Z,2.80
2022-08-09T06:15:28.552Z,2.50
2022-08-09T06:16:28.547Z,2.80
2022-08-09T06:17:40.284Z,2.60
2022-08-09T06:18:28.521Z,2.70
2022-08-09T06:19:28.503Z,2.80
2022-08-09T06:20:28.495Z,2.50
2022-08-09T06:21:28.492Z,2.80
2022-08-09T06:22:28.996Z,2.90
2022-08-09T06:23:57.461Z,2.70
2022-08-09T06:24:28.444Z,2.50
2022-08-09T06:25:28.432Z,2.70
2022-08-09T06:26:28.949Z,2.70
2022-08-09T06:27:42.329Z,2.90
2022-08-09T06:28:32.044Z,3.00
2022-08-09T06:29:28.375Z,3.00
2022-08-09T06:30:28.336Z,3.00
2022-08-09T06:31:31.175Z,3.20
2022-08-09T06:33:13.376Z,3.30
2022-08-09T06:33:52.987Z,2.60
2022-08-09T06:34:30.751Z,2.40
2022-08-09T06:35:56.482Z,2.70
2022-08-09T06:36:29.898Z,3.00
2022-08-09T06:37:28.860Z,2.70
2022-08-09T06:38:32.103Z,2.80
2022-08-09T06:39:48.232Z,3.40
2022-08-09T06:40:28.293Z,2.90
2022-08-09T06:41:58.856Z,2.30
2022-08-09T06:42:30.549Z,2.80
2022-08-09T06:43:34.063Z,3.00
2022-08-09T06:44:28.197Z,2.90
2022-08-09T06:46:07.785Z,2.60
2022-08-09T06:46:40.176Z,2.60
2022-08-09T06:47:30.082Z,2.30
2022-08-09T06:48:30.938Z,2.50
2022-08-09T06:49:45.163Z,2.80
2022-08-09T06:50:28.162Z,2.60
2022-08-09T06:51:28.320Z,2.70
2022-08-09T06:52:28.048Z,2.70
2022-08-09T06:53:33.395Z,2.50
2022-08-09T06:54:28.052Z,2.70
2022-08-09T06:55:28.028Z,2.10
2022-08-09T06:56:30.821Z,2.60
2022-08-09T06:58:01.640Z,2.30
2022-08-09T06:58:40.625Z,2.60
2022-08-09T07:00:59.845Z,2.30
2022-08-09T07:01:05.495Z,2.40
2022-08-09T07:02:05.552Z,2.20
2022-08-09T07:03:06.186Z,2.60
2022-08-09T07:04:05.431Z,2.80
2022-08-09T07:05:05.421Z,2.60
2022-08-09T07:06:05.597Z,2.70
2022-08-09T07:07:05.397Z,2.60
2022-08-09T07:08:05.379Z,2.70
2022-08-09T07:09:05.385Z,2.70
2022-08-09T07:10:14.246Z,2.90
2022-08-09T07:11:06.540Z,2.40
2022-08-09T07:12:05.334Z,2.60
2022-08-09T07:13:27.674Z,2.70
2022-08-09T07:14:06.347Z,3.10
2022-08-09T07:16:36.695Z,3.10
2022-08-09T07:16:48.155Z,2.50
2022-08-09T07:17:05.261Z,2.60
2022-08-09T07:18:05.235Z,2.60
2022-08-09T07:19:05.280Z,2.90
2022-08-09T07:20:05.193Z,2.50
2022-08-09T07:21:07.662Z,2.50
2022-08-09T07:22:05.202Z,2.50
2022-08-09T07:23:18.248Z,2.80
2022-08-09T07:24:05.186Z,3.00
2022-08-09T07:25:09.810Z,2.60
2022-08-09T07:26:05.152Z,2.50
2022-08-09T07:27:10.893Z,2.60
2022-08-09T07:28:05.120Z,2.90
2022-08-09T07:29:13.116Z,2.60
2022-08-09T07:30:05.503Z,2.30
2022-08-09T07:31:05.104Z,2.80
2022-08-09T07:32:05.052Z,2.80
2022-08-09T07:33:10.281Z,2.60
2022-08-09T07:34:05.166Z,2.30
2022-08-09T07:35:10.062Z,2.20
2022-08-09T07:36:05.018Z,2.40
2022-08-09T07:37:04.987Z,2.50
2022-08-09T07:38:05.017Z,2.70
2022-08-09T07:39:05.038Z,2.10
2022-08-09T07:40:05.176Z,2.00
2022-08-09T07:41:13.157Z,2.30
2022-08-09T07:42:05.110Z,2.40
2022-08-09T07:43:14.725Z,2.10
2022-08-09T07:44:04.922Z,2.70
2022-08-09T07:45:06.488Z,2.70
2022-08-09T07:46:04.858Z,2.50
2022-08-09T07:47:04.893Z,2.10
2022-08-09T07:48:05.236Z,2.10
2022-08-09T07:49:04.813Z,2.60
2022-08-09T07:50:08.525Z,2.20
2022-08-09T07:52:02.445Z,2.50
2022-08-09T07:52:17.718Z,2.70
2022-08-09T07:53:05.235Z,2.10
2022-08-09T07:54:08.468Z,2.40
2022-08-09T07:55:09.732Z,2.80
2022-08-09T07:56:06.666Z,2.20
2022-08-09T07:57:04.748Z,2.50
2022-08-09T07:58:04.726Z,2.20
2022-08-09T07:59:10.505Z,2.20
2022-08-09T08:00:04.685Z,2.20
2022-08-09T08:01:06.666Z,2.20
2022-08-09T08:02:04.905Z,2.30
2022-08-09T08:03:08.033Z,2.10
2022-08-09T08:04:04.641Z,2.30
2022-08-09T08:05:04.675Z,2.20
2022-08-09T08:06:04.621Z,2.40
2022-08-09T08:07:27.211Z,2.60
2022-08-09T08:09:07.729Z,2.30
2022-08-09T08:09:51.796Z,2.80
2022-08-09T08:10:15.425Z,8.50
2022-08-09T08:12:25.010Z,4.70
2022-08-09T08:12:32.819Z,3.20
2022-08-09T08:13:15.352Z,2.70
2022-08-09T08:14:15.335Z,2.60
2022-08-09T08:15:16.877Z,3.30
2022-08-09T08:16:29.754Z,2.90
2022-08-09T08:17:35.243Z,2.70
2022-08-09T08:18:16.382Z,2.00
2022-08-09T08:19:15.274Z,1.60
2022-08-09T08:20:15.287Z,1.80
2022-08-09T08:21:15.248Z,1.90
2022-08-09T08:22:15.228Z,2.10
2022-08-09T08:23:16.610Z,1.80
2022-08-09T08:24:16.704Z,1.90
2022-08-09T08:25:15.552Z,1.60
2022-08-09T08:26:15.184Z,1.90
2022-08-09T08:27:16.856Z,2.10
2022-08-09T08:28:15.525Z,2.00
2022-08-09T08:29:15.149Z,1.80
2022-08-09T08:30:15.176Z,2.10
2022-08-09T08:31:15.452Z,1.40
2022-08-09T08:32:24.538Z,2.00
2022-08-09T08:33:23.233Z,1.60
2022-08-09T08:34:15.082Z,1.80
2022-08-09T08:35:18.147Z,1.80
2022-08-09T08:36:28.380Z,2.00
2022-08-09T08:37:17.660Z,1.60
2022-08-09T08:38:15.039Z,1.60
2022-08-09T08:39:15.086Z,1.70
2022-08-09T08:40:15.014Z,1.70
2022-08-09T08:41:15.001Z,1.60
2022-08-09T08:42:15.801Z,1.90
2022-08-09T08:43:14.987Z,1.70
2022-08-09T08:44:14.973Z,1.70
2022-08-09T08:45:14.952Z,1.80
2022-08-09T08:46:32.389Z,1.70
2022-08-09T08:47:15.127Z,1.80
2022-08-09T08:48:16.834Z,1.60
2022-08-09T08:49:19.132Z,1.30
2022-08-09T08:50:15.532Z,2.10
2022-08-09T08:51:14.898Z,1.70
2022-08-09T08:52:41.479Z,1.80
2022-08-09T08:53:21.661Z,1.60
2022-08-09T08:54:20.192Z,2.00
2022-08-09T08:55:15.377Z,1.70
2022-08-09T08:56:28.226Z,1.40
2022-08-09T08:57:14.809Z,1.60
2022-08-09T08:58:14.804Z,2.40
2022-08-09T08:59:19.341Z,1.70
2022-08-09T09:00:27.232Z,1.90
2022-08-09T09:01:19.673Z,1.60
2022-08-09T09:02:14.808Z,1.50
2022-08-09T09:03:22.806Z,1.60
2022-08-09T09:04:14.808Z,2.20
2022-08-09T09:05:14.721Z,1.50
2022-08-09T09:06:14.708Z,1.70
2022-08-09T09:07:14.678Z,1.60
2022-08-09T09:08:29.779Z,1.70
2022-08-09T09:09:21.006Z,1.80
2022-08-09T09:10:14.661Z,1.50
2022-08-09T09:11:17.617Z,1.50
2022-08-09T09:12:16.963Z,1.70
2022-08-09T09:13:15.106Z,1.20
2022-08-09T09:14:15.817Z,1.30
2022-08-09T09:15:28.356Z,1.70
2022-08-09T09:16:14.590Z,1.40
2022-08-09T09:17:16.369Z,1.50
2022-08-09T09:18:14.603Z,1.50
2022-08-09T09:19:37.093Z,1.60
2022-08-09T09:20:15.436Z,1.60
2022-08-09T09:21:14.518Z,1.40
2022-08-09T09:22:15.877Z,1.70
2022-08-09T09:23:14.523Z,1.60
2022-08-09T09:24:21.872Z,1.80
2022-08-09T09:26:03.656Z,2.00
2022-08-09T09:26:17.110Z,1.70
2022-08-09T09:28:04.421Z,1.30
2022-08-09T09:28:14.509Z,1.50
2022-08-09T09:29:16.872Z,1.50
2022-08-09T09:31:17.277Z,1.30
2022-08-09T09:32:15.838Z,1.10
2022-08-09T09:33:16.590Z,1.60
2022-08-09T09:34:15.154Z,1.60
2022-08-09T09:35:15.783Z,1.30
2022-08-09T09:36:20.412Z,1.40
2022-08-09T09:37:14.352Z,1.20
2022-08-09T09:38:18.460Z,1.40
2022-08-09T09:39:14.497Z,1.70
2022-08-09T09:40:14.470Z,1.50
2022-08-09T09:41:14.309Z,1.50
2022-08-09T09:42:14.288Z,1.50
2022-08-09T09:43:14.285Z,1.70
2022-08-09T09:44:25.173Z,1.40
2022-08-09T09:45:25.799Z,1.40
2022-08-09T09:47:14.267Z,1.50
2022-08-09T09:48:14.472Z,1.50
2022-08-09T09:49:14.229Z,1.50
2022-08-09T09:50:17.598Z,1.70
2022-08-09T09:51:26.179Z,1.60
2022-08-09T09:52:35.640Z,1.40
2022-08-09T09:53:14.214Z,1.70
2022-08-09T09:54:20.482Z,1.70
2022-08-09T09:55:24.425Z,1.50
2022-08-09T09:56:19.784Z,1.60
2022-08-09T09:58:02.605Z,1.70
2022-08-09T09:58:17.026Z,1.80
2022-08-09T09:59:14.122Z,1.40
2022-08-09T10:00:14.102Z,1.70
2022-08-09T10:01:31.152Z,1.50
2022-08-09T10:02:14.049Z,1.70
2022-08-09T10:03:14.242Z,1.50
2022-08-09T10:04:15.982Z,1.80
2022-08-09T10:05:14.042Z,1.60
2022-08-09T10:06:14.031Z,1.60
2022-08-09T10:07:14.011Z,1.70
2022-08-09T10:08:28.444Z,1.80
2022-08-09T10:09:23.402Z,1.50
2022-08-09T10:10:14.019Z,1.30
2022-08-09T10:11:58.927Z,1.20
2022-08-09T10:12:43.659Z,1.90
2022-08-09T10:13:13.934Z,1.50
2022-08-09T10:14:13.930Z,2.10
2022-08-09T10:15:17.451Z,1.50
2022-08-09T10:16:57.132Z,2.20
2022-08-09T10:17:51.098Z,1.50
2022-08-09T10:18:13.888Z,1.50
2022-08-09T10:19:13.873Z,1.80
2022-08-09T10:20:15.281Z,1.60
2022-08-09T10:21:13.839Z,1.50
2022-08-09T10:22:13.817Z,1.50
2022-08-09T10:23:13.840Z,1.40
2022-08-09T10:24:16.009Z,1.90
2022-08-09T10:25:14.655Z,1.70
2022-08-09T10:26:13.800Z,1.30
2022-08-09T10:27:18.201Z,1.50
2022-08-09T10:28:13.783Z,1.40
2022-08-09T10:29:37.144Z,1.30
2022-08-09T10:32:38.318Z,1.50
2022-08-09T10:34:04.294Z,1.30
2022-08-09T10:34:33.247Z,1.60
2022-08-09T10:35:13.708Z,1.60
2022-08-09T10:36:13.734Z,1.70
2022-08-09T10:37:13.931Z,1.60
2022-08-09T10:38:34.350Z,1.50
2022-08-09T10:39:16.188Z,1.50
2022-08-09T10:40:33.704Z,1.40
2022-08-09T10:41:13.654Z,1.60
2022-08-09T10:42:13.616Z,1.60
2022-08-09T10:43:13.599Z,1.60
2022-08-09T10:44:13.625Z,1.60
2022-08-09T10:45:16.579Z,1.60
2022-08-09T10:46:20.039Z,1.80
2022-08-09T10:48:12.783Z,1.20
2022-08-09T10:48:31.363Z,1.60
2022-08-09T10:49:13.531Z,1.50
2022-08-09T10:50:15.023Z,1.60
2022-08-09T10:51:13.705Z,1.40
2022-08-09T10:52:14.758Z,1.60
2022-08-09T10:53:13.511Z,1.30
2022-08-09T10:54:13.474Z,1.50
2022-08-09T10:55:13.504Z,1.50
2022-08-09T10:56:13.469Z,1.40
2022-08-09T10:57:13.452Z,1.60
2022-08-09T10:58:17.169Z,1.50
2022-08-09T10:59:13.427Z,1.30
2022-08-09T11:00:13.424Z,1.30
2022-08-09T11:03:13.339Z,1.60
2022-08-09T11:03:46.788Z,1.70
2022-08-09T11:04:02.128Z,2.10
2022-08-09T11:04:34.593Z,1.50
2022-08-09T11:05:34.564Z,1.40
2022-08-09T11:06:34.545Z,1.20
2022-08-09T11:07:57.038Z,1.80
2022-08-09T11:08:34.531Z,1.50
2022-08-09T11:09:36.688Z,1.60
2022-08-09T11:10:34.486Z,1.60
2022-08-09T11:11:34.497Z,1.70
2022-08-09T11:12:34.925Z,1.70
2022-08-09T11:13:54.234Z,1.40
2022-08-09T11:14:34.462Z,1.30
2022-08-09T11:15:38.504Z,1.50
2022-08-09T11:16:35.717Z,1.50
2022-08-09T11:17:34.421Z,1.30
2022-08-09T11:18:34.404Z,1.60
2022-08-09T11:20:11.229Z,1.30
2022-08-09T11:20:34.378Z,1.30
2022-08-09T11:21:34.362Z,1.30
2022-08-09T11:22:34.390Z,1.60
2022-08-09T11:23:34.352Z,1.40
2022-08-09T11:24:34.325Z,1.60
2022-08-09T11:25:44.976Z,1.70
2022-08-09T11:26:34.325Z,1.40
2022-08-09T11:28:04.333Z,1.60
2022-08-09T11:28:38.859Z,1.40
2022-08-09T11:30:04.512Z,1.50
2022-08-09T11:30:36.004Z,1.40
2022-08-09T11:31:36.510Z,1.70
2022-08-09T11:32:34.518Z,1.60
2022-08-09T11:33:34.226Z,2.00
2022-08-09T11:34:34.839Z,1.70
2022-08-09T11:35:35.320Z,1.30
2022-08-09T11:36:35.335Z,1.70
2022-08-09T11:37:40.900Z,1.50
2022-08-09T11:38:34.915Z,1.50
2022-08-09T11:39:38.748Z,1.40
2022-08-09T11:40:34.156Z,1.40
2022-08-09T11:41:37.542Z,1.50
2022-08-09T11:42:34.511Z,1.40
2022-08-09T11:43:34.115Z,1.40
2022-08-09T11:44:34.087Z,1.40
2022-08-09T11:45:42.197Z,1.60
2022-08-09T11:46:34.085Z,1.40
2022-08-09T11:47:34.053Z,1.50
2022-08-09T11:48:34.048Z,1.80
2022-08-09T11:49:42.955Z,1.50
2022-08-09T11:52:49.044Z,1.50
2022-08-09T11:54:01.398Z,1.40
2022-08-09T11:54:13.478Z,1.50
2022-08-09T11:54:28.692Z,1.20
2022-08-09T11:55:21.752Z,1.60
2022-08-09T11:56:19.647Z,1.50
2022-08-09T11:57:28.328Z,1.40
2022-08-09T11:58:19.551Z,1.50
2022-08-09T11:59:19.444Z,1.50
2022-08-09T12:00:24.288Z,2.00
2022-08-09T12:02:15.737Z,1.90
2022-08-09T12:02:37.260Z,1.40
2022-08-09T12:03:54.789Z,1.70
2022-08-09T12:04:20.841Z,1.40
2022-08-09T12:05:22.660Z,1.30
2022-08-09T12:06:26.453Z,1.40
2022-08-09T12:07:19.375Z,1.50
2022-08-09T12:08:19.837Z,1.40
2022-08-09T12:09:20.916Z,1.70
2022-08-09T12:10:38.304Z,1.40
2022-08-09T12:11:19.323Z,1.50
2022-08-09T12:12:20.599Z,9.10
2022-08-09T12:14:07.509Z,4.60
2022-08-09T12:14:28.794Z,1.60
2022-08-09T12:15:22.262Z,1.70
2022-08-09T12:16:30.979Z,1.50
2022-08-09T12:17:34.258Z,1.80
2022-08-09T12:18:29.901Z,1.60
2022-08-09T12:19:19.209Z,1.50
2022-08-09T12:20:21.534Z,1.30
2022-08-09T12:21:28.597Z,1.60
2022-08-09T12:22:19.181Z,1.70
2022-08-09T12:23:24.555Z,1.90
2022-08-09T12:24:19.156Z,1.30
2022-08-09T12:25:36.335Z,1.30
2022-08-09T12:26:19.875Z,1.70
2022-08-09T12:29:15.301Z,1.50
2022-08-09T12:29:52.434Z,1.50
2022-08-09T12:30:35.175Z,1.40
2022-08-09T12:30:45.024Z,1.50
2022-08-09T12:32:01.984Z,1.60
2022-08-09T12:32:45.014Z,1.70
2022-08-09T12:33:59.462Z,1.80
2022-08-09T12:34:44.963Z,1.30
2022-08-09T12:35:45.012Z,1.50
2022-08-09T12:36:44.934Z,1.50
2022-08-09T12:37:50.141Z,1.80
2022-08-09T12:38:44.961Z,1.50
2022-08-09T12:39:45.039Z,1.50
2022-08-09T12:40:44.935Z,1.50
2022-08-09T12:41:44.882Z,1.60
2022-08-09T12:42:44.882Z,1.40
2022-08-09T12:44:06.841Z,1.40
2022-08-09T12:44:46.224Z,1.50
2022-08-09T12:45:44.835Z,1.50
2022-08-09T12:46:49.262Z,1.40
2022-08-09T12:47:50.363Z,1.50
2022-08-09T12:48:44.788Z,1.80
2022-08-09T12:49:51.102Z,1.20
2022-08-09T12:50:44.798Z,1.60
2022-08-09T12:52:00.149Z,1.40
2022-08-09T12:53:08.459Z,1.80
2022-08-09T12:53:52.863Z,1.40
2022-08-09T12:54:44.738Z,1.20
2022-08-09T12:56:15.951Z,1.60
2022-08-09T12:56:48.494Z,1.60
2022-08-09T12:57:46.193Z,1.60
2022-08-09T12:58:45.917Z,1.40
2022-08-09T13:00:02.900Z,1.30
2022-08-09T13:00:44.835Z,1.60
2022-08-09T13:01:48.759Z,1.50
2022-08-09T13:02:44.651Z,1.50
2022-08-09T13:03:57.155Z,1.50
2022-08-09T13:04:44.632Z,1.60
2022-08-09T13:05:51.588Z,1.60
2022-08-09T13:06:44.589Z,1.50
2022-08-09T13:07:51.524Z,1.70
2022-08-09T13:08:49.232Z,1.40
2022-08-09T13:09:56.003Z,1.50
2022-08-09T13:10:44.553Z,1.40
2022-08-09T13:11:44.579Z,1.40
2022-08-09T13:12:58.963Z,1.30
2022-08-09T13:14:40.893Z,1.40
2022-08-09T13:14:53.794Z,1.70
2022-08-09T13:15:44.491Z,1.20
2022-08-09T13:16:45.893Z,1.50
2022-08-09T13:18:04.883Z,1.60
2022-08-09T13:18:44.445Z,1.40
2022-08-09T13:20:07.662Z,1.50
2022-08-09T13:21:03.834Z,1.60
2022-08-09T13:22:45.656Z,1.50
2022-08-09T13:24:07.239Z,1.60
2022-08-09T13:24:54.020Z,1.70
2022-08-09T13:25:03.576Z,1.30
2022-08-09T13:25:57.402Z,1.60